Glasgow, Montana
Current Conditions -  °F | °C
As of 1:53 AM on Friday 31 Oct 2014 (Local Time) from KGGW Reporting Station
Clear Clear  
Wind Chill: 23°   Ceiling: Unl
Heat Index: 34°   Visibility: 8mi
Dew Point: 29°   Wind: 20mph
Humidity: 82%   Direction: 120°ESE
Pressure: 30.27"   Gusts: NA
Location:  48.2°N, 106.64°W
Report Text: KGGW 310753Z AUTO 12017KT 8SM CLR 01/M02 A3027 RMK AO2 PK WND 12027/0722 SLP276 T00111017
Loading
Personal Weather Stations






























Interactive Weather Map
Tropical Storm Tracking
New forecast layout! Learn more

10-Day Weather Forecast

Advertisements
Track Severe Weather on mobile